createdAt,value
2018-12-21T00:02:56.989Z,180
2018-12-21T00:07:58.679Z,180
2018-12-21T00:12:57.253Z,180
2018-12-21T00:17:56.790Z,180
2018-12-21T00:22:57.334Z,158
2018-12-21T00:27:56.877Z,158
2018-12-21T00:32:56.568Z,158
2018-12-21T00:37:57.136Z,158
2018-12-21T00:42:56.668Z,180
2018-12-21T00:47:57.248Z,180
2018-12-21T00:52:57.406Z,158
2018-12-21T00:57:56.825Z,158
2018-12-21T01:02:57.456Z,158
2018-12-21T01:07:56.776Z,158
2018-12-21T01:12:56.801Z,180
2018-12-21T01:17:57.407Z,180
2018-12-21T01:22:57.347Z,180
2018-12-21T01:27:56.909Z,180
2018-12-21T01:32:56.593Z,180
2018-12-21T01:37:56.786Z,180
2018-12-21T01:42:56.591Z,158
2018-12-21T01:47:56.591Z,158
2018-12-21T01:52:57.097Z,202
2018-12-21T01:57:56.786Z,202
2018-12-21T02:02:57.379Z,180
2018-12-21T02:07:57.001Z,180
2018-12-21T02:12:56.852Z,180
2018-12-21T02:17:57.162Z,180
2018-12-21T02:22:56.842Z,135
2018-12-21T02:27:56.613Z,135
2018-12-21T02:32:57.344Z,158
2018-12-21T02:37:57.424Z,158
2018-12-21T02:42:57.520Z,135
2018-12-21T02:47:56.663Z,135
2018-12-21T02:52:57.563Z,158
2018-12-21T02:57:57.054Z,158
2018-12-21T03:02:56.946Z,158
2018-12-21T03:07:57.456Z,158
2018-12-21T03:12:57.545Z,158
2018-12-21T03:17:57.070Z,158
2018-12-21T03:22:57.082Z,158
2018-12-21T03:27:56.588Z,158
2018-12-21T03:32:57.317Z,180
2018-12-21T03:37:56.867Z,180
2018-12-21T03:42:57.449Z,158
2018-12-21T03:47:56.955Z,158
2018-12-21T03:52:57.462Z,180
2018-12-21T03:57:57.022Z,180
2018-12-21T04:02:57.677Z,180
2018-12-21T04:07:57.441Z,180
2018-12-21T04:12:57.297Z,180
2018-12-21T04:17:56.977Z,180
2018-12-21T04:22:56.922Z,180
2018-12-21T04:27:57.511Z,180
2018-12-21T04:32:56.921Z,158
2018-12-21T04:37:56.757Z,158
2018-12-21T04:42:57.293Z,158
2018-12-21T04:47:57.057Z,158
2018-12-21T04:52:56.630Z,158
2018-12-21T04:57:57.246Z,158
2018-12-21T05:02:56.973Z,180
2018-12-21T05:07:56.752Z,180
2018-12-21T05:12:57.644Z,180
2018-12-21T05:17:57.415Z,180
2018-12-21T05:22:57.320Z,135
2018-12-21T05:27:57.264Z,135
2018-12-21T05:32:57.693Z,135
2018-12-21T05:37:57.402Z,135
2018-12-21T05:42:57.046Z,135
2018-12-21T05:47:57.681Z,135
2018-12-21T05:53:00.882Z,158
2018-12-21T05:57:57.098Z,158
2018-12-21T06:02:56.900Z,158
2018-12-21T06:07:57.074Z,158
2018-12-21T06:12:56.914Z,135
2018-12-21T06:17:57.478Z,135
2018-12-21T06:22:57.417Z,180
2018-12-21T06:27:57.116Z,180
2018-12-21T06:32:57.593Z,158
2018-12-21T06:37:57.382Z,158
2018-12-21T06:42:56.812Z,158
2018-12-21T06:47:57.291Z,158
2018-12-21T06:52:57.668Z,135
2018-12-21T06:57:57.095Z,135
2018-12-21T07:02:57.563Z,135
2018-12-21T07:07:57.426Z,135
2018-12-21T07:12:57.563Z,135
2018-12-21T07:17:57.247Z,135
2018-12-21T07:22:57.746Z,135
2018-12-21T07:27:57.256Z,135
2018-12-21T07:32:57.899Z,135
2018-12-21T07:37:57.413Z,135
2018-12-21T07:42:56.961Z,135
2018-12-21T07:47:57.356Z,135
2018-12-21T07:52:56.987Z,135
2018-12-21T07:57:58.664Z,135
2018-12-21T08:02:57.353Z,135
2018-12-21T08:07:57.465Z,135
2018-12-21T08:12:57.894Z,135
2018-12-21T08:17:57.360Z,135
2018-12-21T08:22:57.054Z,112
2018-12-21T08:27:57.577Z,112
2018-12-21T08:32:57.244Z,135
2018-12-21T08:37:57.833Z,135
2018-12-21T08:42:57.329Z,90
2018-12-21T08:47:57.950Z,90
2018-12-21T08:52:57.506Z,135
2018-12-21T08:57:57.201Z,135
2018-12-21T09:02:57.621Z,135
2018-12-21T09:07:57.453Z,135
2018-12-21T09:12:57.047Z,135
2018-12-21T09:17:57.606Z,135
2018-12-21T09:22:57.186Z,112
2018-12-21T09:27:57.192Z,112
2018-12-21T09:32:57.915Z,135
2018-12-21T09:37:57.519Z,135
2018-12-21T09:42:57.046Z,112
2018-12-21T09:47:57.612Z,112
2018-12-21T09:52:57.142Z,112
2018-12-21T09:57:57.674Z,112
2018-12-21T10:02:57.199Z,135
2018-12-21T10:07:57.150Z,135
2018-12-21T10:12:57.800Z,135
2018-12-21T10:17:57.309Z,135
2018-12-21T10:22:57.839Z,135
2018-12-21T10:27:57.582Z,135
2018-12-21T10:32:57.333Z,135
2018-12-21T10:37:57.164Z,135
2018-12-21T10:42:57.636Z,135
2018-12-21T10:47:57.397Z,135
2018-12-21T10:52:57.228Z,135
2018-12-21T10:57:57.942Z,135
2018-12-21T11:02:57.673Z,135
2018-12-21T11:07:57.800Z,135
2018-12-21T11:12:57.759Z,135
2018-12-21T11:17:57.339Z,135
2018-12-21T11:22:58.084Z,135
2018-12-21T11:27:57.596Z,135
2018-12-21T11:32:58.073Z,112
2018-12-21T11:37:58.130Z,112
2018-12-21T11:42:57.554Z,112
2018-12-21T11:47:58.111Z,112
2018-12-21T11:52:57.853Z,135
2018-12-21T11:57:57.584Z,135
2018-12-21T12:02:58.171Z,112
2018-12-21T12:07:57.927Z,112
2018-12-21T12:12:57.737Z,112
2018-12-21T12:17:57.388Z,112
2018-12-21T12:22:57.846Z,112
2018-12-21T12:27:57.386Z,112
2018-12-21T12:32:57.919Z,112
2018-12-21T12:37:57.507Z,112
2018-12-21T12:42:58.098Z,112
2018-12-21T12:47:57.558Z,112
2018-12-21T12:52:58.103Z,135
2018-12-21T12:57:57.533Z,135
2018-12-21T13:02:58.084Z,90
2018-12-21T13:07:57.320Z,90
2018-12-21T13:12:57.336Z,135
2018-12-21T13:17:57.908Z,135
2018-12-21T13:22:58.176Z,112
2018-12-21T13:27:57.877Z,112
2018-12-21T13:32:57.434Z,112
2018-12-21T13:37:58.136Z,112
2018-12-21T13:42:57.725Z,112
2018-12-21T13:47:57.446Z,112
2018-12-21T13:52:57.976Z,112
2018-12-21T13:57:57.649Z,112
2018-12-21T14:02:58.355Z,112
2018-12-21T14:07:57.458Z,112
2018-12-21T14:12:58.227Z,135
2018-12-21T14:17:58.015Z,135
2018-12-21T14:22:57.577Z,135
2018-12-21T14:27:58.021Z,135
2018-12-21T14:32:57.679Z,135
2018-12-21T14:37:57.505Z,135
2018-12-21T14:42:58.042Z,135
2018-12-21T14:47:57.869Z,135
2018-12-21T14:52:57.588Z,112
2018-12-21T14:57:57.971Z,112
2018-12-21T15:02:58.074Z,112
2018-12-21T15:07:57.973Z,112
2018-12-21T15:12:57.970Z,112
2018-12-21T15:17:57.520Z,112
2018-12-21T15:22:58.227Z,135
2018-12-21T15:27:57.857Z,135
2018-12-21T15:32:57.620Z,135
2018-12-21T15:37:57.512Z,135
2018-12-21T15:42:58.181Z,112
2018-12-21T15:47:57.767Z,112
2018-12-21T15:52:58.295Z,135
2018-12-21T15:57:57.913Z,135
2018-12-21T16:02:57.584Z,135
2018-12-21T16:07:58.384Z,135
2018-12-21T16:12:57.515Z,135
2018-12-21T16:17:58.262Z,135
2018-12-21T16:22:58.033Z,135
2018-12-21T16:27:57.534Z,135
2018-12-21T16:32:58.219Z,112
2018-12-21T16:37:58.052Z,112
2018-12-21T16:42:57.636Z,135
2018-12-21T16:47:58.432Z,135
2018-12-21T16:52:57.911Z,135
2018-12-21T16:57:57.850Z,135
2018-12-21T17:02:57.806Z,180
2018-12-21T17:07:57.760Z,180
2018-12-21T17:12:58.541Z,180
2018-12-21T17:17:58.406Z,180
2018-12-21T17:22:57.953Z,135
2018-12-21T17:27:57.633Z,135
2018-12-21T17:32:58.071Z,202
2018-12-21T17:37:57.848Z,202
2018-12-21T17:42:58.337Z,180
2018-12-21T17:47:57.991Z,180
2018-12-21T17:52:58.466Z,180
2018-12-21T17:57:57.995Z,180
2018-12-21T18:02:57.604Z,202
2018-12-21T18:07:58.312Z,202
2018-12-21T18:12:57.850Z,180
2018-12-21T18:17:58.479Z,180
2018-12-21T18:22:58.247Z,180
2018-12-21T18:27:58.151Z,180
2018-12-21T18:32:57.731Z,225
2018-12-21T18:37:58.407Z,225
2018-12-21T18:42:58.089Z,248
2018-12-21T18:47:58.585Z,248
2018-12-21T18:52:58.107Z,225
2018-12-21T18:57:57.880Z,225
2018-12-21T19:02:58.619Z,225
2018-12-21T19:07:58.628Z,225
2018-12-21T19:12:57.663Z,225
2018-12-21T19:17:58.181Z,225
2018-12-21T19:22:58.642Z,225
2018-12-21T19:27:58.114Z,225
2018-12-21T19:32:58.686Z,248
2018-12-21T19:37:58.427Z,248
2018-12-21T19:42:58.084Z,225
2018-12-21T19:47:57.705Z,225
2018-12-21T19:52:58.202Z,225
2018-12-21T19:57:58.610Z,225
2018-12-21T20:02:58.209Z,225
2018-12-21T20:07:57.975Z,225
2018-12-21T20:12:58.722Z,225
2018-12-21T20:17:58.362Z,225
2018-12-21T20:22:57.837Z,225
2018-12-21T20:27:58.431Z,225
2018-12-21T20:32:58.123Z,248
2018-12-21T20:37:58.603Z,248
2018-12-21T20:42:58.183Z,225
2018-12-21T20:47:58.675Z,225
2018-12-21T20:52:58.281Z,270
2018-12-21T20:57:57.905Z,270
2018-12-21T21:02:58.577Z,225
2018-12-21T21:07:58.442Z,225
2018-12-21T21:12:58.438Z,248
2018-12-21T21:17:58.099Z,248
2018-12-21T21:22:58.645Z,225
2018-12-21T21:27:58.288Z,225
2018-12-21T21:32:57.975Z,270
2018-12-21T21:37:58.585Z,270
2018-12-21T21:42:58.254Z,270
2018-12-21T21:47:57.896Z,270
2018-12-21T21:52:58.253Z,270
2018-12-21T21:57:57.843Z,270
2018-12-21T22:02:58.536Z,248
2018-12-21T22:07:58.533Z,248
2018-12-21T22:12:58.055Z,248
2018-12-21T22:17:58.730Z,248
2018-12-21T22:22:58.424Z,248
2018-12-21T22:27:58.075Z,248
2018-12-21T22:32:58.583Z,248
2018-12-21T22:37:58.331Z,248
2018-12-21T22:42:57.938Z,248
2018-12-21T22:47:58.399Z,248
2018-12-21T22:52:58.009Z,270
2018-12-21T22:57:58.600Z,270
2018-12-21T23:02:59.048Z,248
2018-12-21T23:07:58.914Z,248
2018-12-21T23:12:58.124Z,248
2018-12-21T23:17:58.021Z,248
2018-12-21T23:22:58.747Z,270
2018-12-21T23:28:05.008Z,270
2018-12-21T23:32:58.980Z,270
2018-12-21T23:37:58.772Z,270
2018-12-21T23:42:58.430Z,270
2018-12-21T23:47:58.121Z,270
2018-12-21T23:52:58.811Z,270
2018-12-21T23:57:58.528Z,270
